Nbp Island — V2FH3 — position and weather

sailwx.info

Track history (hours):
 
Tides and Currents Weather Stations Pressure Air Temp Water Temp Dewpoint Dewpoint Depression Visibility Wind Speed Wind Dir Waves Ship Positions

Nbp Island

Last reported at 2017-May-30 12:30 UTC. Time now 2017-May-30 12:52 UTC.
Position N 51°01' E 001°21'.

Length 107 m; draft 7.6 m.

Type: Cargo ship. MMSI: 305674000.

Date/timePositionNaut miles runAvg speedWind from/ knotsBaromVisibWave heightAir tempDewpointWater temp
2017-May-30 12:30N 51°01' E 001°21'713.5
2017-May-30 12:01N 51°05' E 001°29'714.8
2017-May-30 11:30N 51°10' E 001°38'714.4
2017-May-30 11:00N 51°15' E 001°47'714.2
2017-May-30 10:30N 51°21' E 001°52'713.4
2017-May-30 10:01N 51°27' E 001°57'612.5
2017-May-30 09:30N 51°32' E 002°04'612.0
2017-May-30 09:00N 51°36' E 002°10'16611.0
2017-May-29 17:51N 54°02' E 004°22'2412.0
2017-May-29 15:50N 54°22' E 004°46'511.9
2017-May-29 15:27N 54°26' E 004°51'511.8
2017-May-29 15:00N 54°30' E 004°56'811.7
2017-May-29 14:20N 54°36' E 005°04'2811.4
2017-May-29 11:54N 54°59' E 005°31'411.3
2017-May-29 11:30N 55°03' E 005°35'611.2
2017-May-29 10:59N 55°08' E 005°41'511.2
2017-May-29 10:30N 55°12' E 005°46'611.3
2017-May-29 09:59N 55°17' E 005°52'611.3
2017-May-29 09:29N 55°22' E 005°58'611.5
2017-May-29 08:59N 55°27' E 006°03'511.3
2017-May-29 08:30N 55°31' E 006°08'611.3
2017-May-29 08:00N 55°36' E 006°14'611.4
2017-May-29 07:30N 55°41' E 006°20'611.4
2017-May-29 06:59N 55°45' E 006°26'611.4
2017-May-29 06:29N 55°50' E 006°32'511.4
2017-May-29 06:00N 55°54' E 006°38'611.3
2017-May-29 05:30N 55°59' E 006°44'611.1
2017-May-29 04:59N 56°03' E 006°50'511.0
2017-May-29 04:30N 56°07' E 006°56'611.0
2017-May-29 03:59N 56°12' E 007°02'511.0
2017-May-29 03:30N 56°16' E 007°08'611.2
2017-May-29 02:59N 56°21' E 007°14'611.3
2017-May-29 02:27N 56°26' E 007°20'711.3
2017-May-29 01:50N 56°32' E 007°27'411.3
2017-May-29 01:30N 56°35' E 007°31'611.3
2017-May-29 00:58N 56°40' E 007°37'511.1
2017-May-29 00:30N 56°44' E 007°43'611.0
2017-May-28 23:58N 56°49' E 007°49'610.8
2017-May-28 23:22N 56°54' E 007°56'410.5
2017-May-28 22:59N 56°57' E 008°01'510.4
2017-May-28 22:28N 57°01' E 008°08'2610.1
2017-May-28 19:51N 57°18' E 008°45'410.1
2017-May-28 19:29N 57°20' E 008°51'910.1
2017-May-28 18:38N 57°25' E 009°04'110.2
2017-May-28 18:30N 57°25' E 009°06'4610.2
2017-May-28 14:00N 57°49' E 010°20'610.8
2017-May-28 13:29N 57°49' E 010°30'511.1
2017-May-28 13:00N 57°48' E 010°40'611.2
2017-May-28 12:29N 57°47' E 010°51'511.1
2017-May-28 12:00N 57°45' E 011°00'611.3
2017-May-28 11:30N 57°42' E 011°09'511.0
2017-May-28 11:00N 57°40' E 011°18'611.0
2017-May-28 10:30N 57°38' E 011°28'611.4
2017-May-28 10:00N 57°35' E 011°37'2 3.8
2017-May-28 09:28N 57°36' E 011°41'0 0.1
2017-May-28 08:58N 57°36' E 011°41'0 0.0
2017-May-28 08:28N 57°36' E 011°41'0 0.0
2017-May-28 07:58N 57°36' E 011°41'0 0.0
2017-May-28 07:28N 57°36' E 011°41'0 0.1
2017-May-28 06:58N 57°36' E 011°41'0 1.0
2017-May-28 06:30N 57°36' E 011°40'4 8.5
2017-May-28 06:00N 57°32' E 011°38'510.6
2017-May-28 05:30N 57°26' E 011°39'510.3
2017-May-28 04:59N 57°21' E 011°39'510.5
2017-May-28 04:28N 57°16' E 011°40'610.8
2017-May-28 03:53N 57°09' E 011°40'410.5
2017-May-28 03:29N 57°05' E 011°42'510.2
2017-May-28 02:59N 57°00' E 011°45'510.3
2017-May-28 02:30N 56°56' E 011°48'510.5
2017-May-28 01:59N 56°50' E 011°51'610.3
2017-May-28 01:23N 56°44' E 011°53'410.9
2017-May-28 01:00N 56°41' E 011°49'510.9
2017-May-28 00:30N 56°36' E 011°44'611.2
2017-May-27 23:57N 56°31' E 011°38'1411.1
2017-May-27 22:42N 56°19' E 011°25'510.9
2017-May-27 22:18N 56°15' E 011°22'311.0
2017-May-27 22:00N 56°12' E 011°19'47 9.5
2017-May-27 17:03N 55°27' E 010°57'110.6
2017-May-27 16:59N 55°26' E 010°58'610.6
2017-May-27 16:24N 55°21' E 011°02'410.9
2017-May-27 16:00N 55°16' E 011°04'5 9.8
2017-May-27 15:29N 55°11' E 011°05'5 9.7
2017-May-27 15:00N 55°07' E 011°03'510.1
2017-May-27 14:30N 55°02' E 011°02'10 9.5
2017-May-27 13:30N 54°54' E 010°54'510.1
2017-May-27 13:00N 54°49' E 010°52'510.0
2017-May-27 12:31N 54°44' E 010°53'510.4
2017-May-27 12:00N 54°41' E 011°00'510.3
2017-May-27 11:30N 54°38' E 011°08'510.1
2017-May-27 11:00N 54°36' E 011°16'1210.5
2017-May-27 09:49N 54°30' E 011°35'410.7
2017-May-27 09:27N 54°28' E 011°40'510.2
2017-May-27 09:00N 54°27' E 011°48'510.0
2017-May-27 08:29N 54°27' E 011°57'510.2
2017-May-27 08:00N 54°27' E 012°05'5 9.4
2017-May-27 07:30N 54°30' E 012°11'510.5
2017-May-27 07:00N 54°35' E 012°14'7 9.5
2017-May-27 06:17N 54°40' E 012°23'3 9.9
2017-May-27 06:00N 54°41' E 012°26'610.1
2017-May-27 05:27N 54°44' E 012°34'510.1
2017-May-27 05:00N 54°47' E 012°41'510.1
2017-May-27 04:30N 54°49' E 012°49'510.1
2017-May-27 03:59N 54°51' E 012°58'510.3
2017-May-27 03:30N 54°52' E 013°06'510.6
2017-May-27 03:00N 54°54' E 013°14'510.3
2017-May-27 02:29N 54°56' E 013°23'510.3
2017-May-27 02:00N 54°57' E 013°31'510.3
2017-May-27 01:30N 54°59' E 013°40'510.0
2017-May-27 01:00N 55°01' E 013°48'510.0
2017-May-27 00:27N 55°03' E 013°57'510.1
2017-May-27 00:00N 55°05' E 014°04'510.3
2017-May-26 23:29N 55°09' E 014°10'510.3
2017-May-26 23:00N 55°13' E 014°16'610.3
2017-May-26 22:28N 55°17' E 014°22'510.3
2017-May-26 22:00N 55°21' E 014°28'5 9.9
2017-May-26 21:28N 55°25' E 014°34'4 9.7
2017-May-26 21:00N 55°27' E 014°40'510.1
2017-May-26 20:30N 55°30' E 014°48'5 9.9
2017-May-26 20:00N 55°32' E 014°55'5 9.9
2017-May-26 19:30N 55°35' E 015°03'510.1
2017-May-26 19:00N 55°37' E 015°11'510.4
2017-May-26 18:30N 55°40' E 015°18'510.5
2017-May-26 18:00N 55°43' E 015°26'510.6
2017-May-26 17:30N 55°46' E 015°34'510.6
2017-May-26 17:00N 55°48' E 015°42'510.7
2017-May-26 16:30N 55°51' E 015°50'510.8
2017-May-26 16:00N 55°54' E 015°59'510.7
2017-May-26 15:30N 55°56' E 016°07'510.6
2017-May-26 15:00N 55°59' E 016°15'1110.5
2017-May-26 14:00N 56°05' E 016°31'510.4
2017-May-26 13:30N 56°08' E 016°39'510.4
2017-May-26 13:00N 56°10' E 016°47'510.6
2017-May-26 12:30N 56°13' E 016°55'510.5
2017-May-26 12:00N 56°16' E 017°02'510.7
2017-May-26 11:30N 56°20' E 017°10'510.6
2017-May-26 11:00N 56°23' E 017°18'26310.7
2017-May-25 10:33N 59°34' E 022°57'010.7
2017-May-25 10:30N 59°34' E 022°57'510.8
2017-May-25 10:00N 59°36' E 023°08'510.8
2017-May-25 09:30N 59°38' E 023°18'510.6
2017-May-25 09:00N 59°39' E 023°28'510.8
2017-May-25 08:30N 59°41' E 023°38'510.8
2017-May-25 08:00N 59°42' E 023°48'510.8
2017-May-25 07:30N 59°43' E 023°59'510.7
2017-May-25 07:00N 59°45' E 024°09'2211.2
2017-May-25 05:00N 59°50' E 024°52'910.5
2017-May-25 04:08N 59°52' E 025°10'110.2
2017-May-25 04:00N 59°52' E 025°13'610.5
2017-May-25 03:25N 59°53' E 025°25'410.5
2017-May-25 03:00N 59°54' E 025°33'510.7
2017-May-25 02:30N 59°55' E 025°43'510.4
2017-May-25 02:00N 59°58' E 025°52'510.7
2017-May-25 01:30N 60°01' E 026°00'510.6
2017-May-25 01:00N 60°05' E 026°08'510.7
2017-May-25 00:30N 60°09' E 026°16'510.4
2017-May-25 00:00N 60°12' E 026°23'5 9.3
2017-May-24 23:30N 60°17' E 026°25'611.8
2017-May-24 23:00N 60°22' E 026°18'3 7.0
2017-May-24 22:30N 60°25' E 026°15'0 0.0
2017-May-24 22:00N 60°25' E 026°15'0 0.0
2017-May-24 21:12N 60°25' E 026°15'0 0.0
2017-May-24 21:00N 60°25' E 026°15'0 0.0
2017-May-24 20:27N 60°25' E 026°15'0 0.0
2017-May-24 19:48N 60°25' E 026°15'0 0.0
2017-May-24 19:24N 60°25' E 026°15'0 0.0
2017-May-24 13:36N 60°25' E 026°15'0 0.0
2017-May-24 13:18N 60°25' E 026°15'0 0.0
2017-May-24 12:45N 60°25' E 026°15'0 0.0
2017-May-24 08:21N 60°25' E 026°15'0 0.0
2017-May-24 07:51N 60°25' E 026°15'0 0.0
2017-May-24 07:21N 60°25' E 026°15'0 0.0
2017-May-24 06:09N 60°25' E 026°15'0 0.0
2017-May-24 05:45N 60°25' E 026°15'0 0.0
2017-May-24 05:27N 60°25' E 026°15'0 0.0
2017-May-24 04:57N 60°25' E 026°15'0 0.0
2017-May-24 02:30N 60°25' E 026°15'0 0.0
2017-May-24 02:00N 60°25' E 026°15'0 0.0
2017-May-24 00:51N 60°25' E 026°15'0 0.0
2017-May-24 00:30N 60°25' E 026°15'0 0.0
2017-May-24 00:00N 60°25' E 026°15'0 0.0
2017-May-23 23:30N 60°25' E 026°15'0 0.0
2017-May-23 22:57N 60°25' E 026°15'0 0.0
2017-May-23 22:30N 60°25' E 026°15'0 0.0
2017-May-23 21:57N 60°25' E 026°15'0 0.0
2017-May-23 21:30N 60°25' E 026°15'0 0.0
2017-May-23 21:00N 60°25' E 026°15'0 0.0
2017-May-23 20:30N 60°25' E 026°15'0 0.0
2017-May-23 19:45N 60°25' E 026°15'0 0.0
2017-May-23 13:24N 60°25' E 026°15'0 0.0
2017-May-23 12:57N 60°25' E 026°15'0 0.0
2017-May-23 12:27N 60°25' E 026°15'0 0.0
2017-May-23 11:57N 60°25' E 026°15'0 0.0
2017-May-23 11:27N 60°25' E 026°15'0 0.0
2017-May-23 10:57N 60°25' E 026°15'0 0.0
2017-May-23 10:27N 60°25' E 026°15'0 0.0
2017-May-23 09:57N 60°25' E 026°15'0 0.0
2017-May-23 09:27N 60°25' E 026°15'0 0.0
2017-May-23 08:57N 60°25' E 026°15'0 0.0
2017-May-23 08:27N 60°25' E 026°15'0 0.0
2017-May-22 19:54N 60°25' E 026°15'0 0.0
2017-May-22 19:24N 60°25' E 026°15'0 0.0
2017-May-22 09:15N 60°25' E 026°15'0 0.0
2017-May-22 02:00N 60°25' E 026°15'0 0.0
2017-May-22 01:24N 60°25' E 026°15'0 0.0
2017-May-22 00:42N 60°25' E 026°15'0 0.0
2017-May-22 00:30N 60°25' E 026°15'0 0.0
2017-May-22 00:00N 60°25' E 026°15'0 0.0
2017-May-21 23:30N 60°25' E 026°15'0 0.0
2017-May-21 23:00N 60°25' E 026°15'  
Track history (hours):
 
Tides and Currents Weather Stations Pressure Air Temp Water Temp Dewpoint Dewpoint Depression Visibility Wind Speed Wind Dir Waves Ship Positions

Nbp Island

Last reported at 2017-May-30 12:30 UTC. Time now 2017-May-30 12:52 UTC.
Position N 51°01' E 001°21'.

Length 107 m; draft 7.6 m.

Type: Cargo ship. MMSI: 305674000.

Date/timePositionNaut miles runAvg speedWind from/ knotsBaromVisibWave heightAir tempDewpointWater temp
2017-May-30 12:30N 51°01' E 001°21'713.5
2017-May-30 12:01N 51°05' E 001°29'714.8
2017-May-30 11:30N 51°10' E 001°38'714.4
2017-May-30 11:00N 51°15' E 001°47'714.2
2017-May-30 10:30N 51°21' E 001°52'713.4
2017-May-30 10:01N 51°27' E 001°57'612.5
2017-May-30 09:30N 51°32' E 002°04'612.0
2017-May-30 09:00N 51°36' E 002°10'16611.0
2017-May-29 17:51N 54°02' E 004°22'2412.0
2017-May-29 15:50N 54°22' E 004°46'511.9
2017-May-29 15:27N 54°26' E 004°51'511.8
2017-May-29 15:00N 54°30' E 004°56'811.7
2017-May-29 14:20N 54°36' E 005°04'2811.4
2017-May-29 11:54N 54°59' E 005°31'411.3
2017-May-29 11:30N 55°03' E 005°35'611.2
2017-May-29 10:59N 55°08' E 005°41'511.2
2017-May-29 10:30N 55°12' E 005°46'611.3
2017-May-29 09:59N 55°17' E 005°52'611.3
2017-May-29 09:29N 55°22' E 005°58'611.5
2017-May-29 08:59N 55°27' E 006°03'511.3
2017-May-29 08:30N 55°31' E 006°08'611.3
2017-May-29 08:00N 55°36' E 006°14'611.4
2017-May-29 07:30N 55°41' E 006°20'611.4
2017-May-29 06:59N 55°45' E 006°26'611.4
2017-May-29 06:29N 55°50' E 006°32'511.4
2017-May-29 06:00N 55°54' E 006°38'611.3
2017-May-29 05:30N 55°59' E 006°44'611.1
2017-May-29 04:59N 56°03' E 006°50'511.0
2017-May-29 04:30N 56°07' E 006°56'611.0
2017-May-29 03:59N 56°12' E 007°02'511.0
2017-May-29 03:30N 56°16' E 007°08'611.2
2017-May-29 02:59N 56°21' E 007°14'611.3
2017-May-29 02:27N 56°26' E 007°20'711.3
2017-May-29 01:50N 56°32' E 007°27'411.3
2017-May-29 01:30N 56°35' E 007°31'611.3
2017-May-29 00:58N 56°40' E 007°37'511.1
2017-May-29 00:30N 56°44' E 007°43'611.0
2017-May-28 23:58N 56°49' E 007°49'610.8
2017-May-28 23:22N 56°54' E 007°56'410.5
2017-May-28 22:59N 56°57' E 008°01'510.4
2017-May-28 22:28N 57°01' E 008°08'2610.1
2017-May-28 19:51N 57°18' E 008°45'410.1
2017-May-28 19:29N 57°20' E 008°51'910.1
2017-May-28 18:38N 57°25' E 009°04'110.2
2017-May-28 18:30N 57°25' E 009°06'4610.2
2017-May-28 14:00N 57°49' E 010°20'610.8
2017-May-28 13:29N 57°49' E 010°30'511.1
2017-May-28 13:00N 57°48' E 010°40'611.2
2017-May-28 12:29N 57°47' E 010°51'511.1
2017-May-28 12:00N 57°45' E 011°00'611.3
2017-May-28 11:30N 57°42' E 011°09'511.0
2017-May-28 11:00N 57°40' E 011°18'611.0
2017-May-28 10:30N 57°38' E 011°28'611.4
2017-May-28 10:00N 57°35' E 011°37'2 3.8
2017-May-28 09:28N 57°36' E 011°41'0 0.1
2017-May-28 08:58N 57°36' E 011°41'0 0.0
2017-May-28 08:28N 57°36' E 011°41'0 0.0
2017-May-28 07:58N 57°36' E 011°41'0 0.0
2017-May-28 07:28N 57°36' E 011°41'0 0.1
2017-May-28 06:58N 57°36' E 011°41'0 1.0
2017-May-28 06:30N 57°36' E 011°40'4 8.5
2017-May-28 06:00N 57°32' E 011°38'510.6
2017-May-28 05:30N 57°26' E 011°39'510.3
2017-May-28 04:59N 57°21' E 011°39'510.5
2017-May-28 04:28N 57°16' E 011°40'610.8
2017-May-28 03:53N 57°09' E 011°40'410.5
2017-May-28 03:29N 57°05' E 011°42'510.2
2017-May-28 02:59N 57°00' E 011°45'510.3
2017-May-28 02:30N 56°56' E 011°48'510.5
2017-May-28 01:59N 56°50' E 011°51'610.3
2017-May-28 01:23N 56°44' E 011°53'410.9
2017-May-28 01:00N 56°41' E 011°49'510.9
2017-May-28 00:30N 56°36' E 011°44'611.2
2017-May-27 23:57N 56°31' E 011°38'1411.1
2017-May-27 22:42N 56°19' E 011°25'510.9
2017-May-27 22:18N 56°15' E 011°22'311.0
2017-May-27 22:00N 56°12' E 011°19'47 9.5
2017-May-27 17:03N 55°27' E 010°57'110.6
2017-May-27 16:59N 55°26' E 010°58'610.6
2017-May-27 16:24N 55°21' E 011°02'410.9
2017-May-27 16:00N 55°16' E 011°04'5 9.8
2017-May-27 15:29N 55°11' E 011°05'5 9.7
2017-May-27 15:00N 55°07' E 011°03'510.1
2017-May-27 14:30N 55°02' E 011°02'10 9.5
2017-May-27 13:30N 54°54' E 010°54'510.1
2017-May-27 13:00N 54°49' E 010°52'510.0
2017-May-27 12:31N 54°44' E 010°53'510.4
2017-May-27 12:00N 54°41' E 011°00'510.3
2017-May-27 11:30N 54°38' E 011°08'510.1
2017-May-27 11:00N 54°36' E 011°16'1210.5
2017-May-27 09:49N 54°30' E 011°35'410.7
2017-May-27 09:27N 54°28' E 011°40'510.2
2017-May-27 09:00N 54°27' E 011°48'510.0
2017-May-27 08:29N 54°27' E 011°57'510.2
2017-May-27 08:00N 54°27' E 012°05'5 9.4
2017-May-27 07:30N 54°30' E 012°11'510.5
2017-May-27 07:00N 54°35' E 012°14'7 9.5
2017-May-27 06:17N 54°40' E 012°23'3 9.9
2017-May-27 06:00N 54°41' E 012°26'610.1
2017-May-27 05:27N 54°44' E 012°34'510.1
2017-May-27 05:00N 54°47' E 012°41'510.1
2017-May-27 04:30N 54°49' E 012°49'510.1
2017-May-27 03:59N 54°51' E 012°58'510.3
2017-May-27 03:30N 54°52' E 013°06'510.6
2017-May-27 03:00N 54°54' E 013°14'510.3
2017-May-27 02:29N 54°56' E 013°23'510.3
2017-May-27 02:00N 54°57' E 013°31'510.3
2017-May-27 01:30N 54°59' E 013°40'510.0
2017-May-27 01:00N 55°01' E 013°48'510.0
2017-May-27 00:27N 55°03' E 013°57'510.1
2017-May-27 00:00N 55°05' E 014°04'510.3
2017-May-26 23:29N 55°09' E 014°10'510.3
2017-May-26 23:00N 55°13' E 014°16'610.3
2017-May-26 22:28N 55°17' E 014°22'510.3
2017-May-26 22:00N 55°21' E 014°28'5 9.9
2017-May-26 21:28N 55°25' E 014°34'4 9.7
2017-May-26 21:00N 55°27' E 014°40'510.1
2017-May-26 20:30N 55°30' E 014°48'5 9.9
2017-May-26 20:00N 55°32' E 014°55'5 9.9
2017-May-26 19:30N 55°35' E 015°03'510.1
2017-May-26 19:00N 55°37' E 015°11'510.4
2017-May-26 18:30N 55°40' E 015°18'510.5
2017-May-26 18:00N 55°43' E 015°26'510.6
2017-May-26 17:30N 55°46' E 015°34'510.6
2017-May-26 17:00N 55°48' E 015°42'510.7
2017-May-26 16:30N 55°51' E 015°50'510.8
2017-May-26 16:00N 55°54' E 015°59'510.7
2017-May-26 15:30N 55°56' E 016°07'510.6
2017-May-26 15:00N 55°59' E 016°15'1110.5
2017-May-26 14:00N 56°05' E 016°31'510.4
2017-May-26 13:30N 56°08' E 016°39'510.4
2017-May-26 13:00N 56°10' E 016°47'510.6
2017-May-26 12:30N 56°13' E 016°55'510.5
2017-May-26 12:00N 56°16' E 017°02'510.7
2017-May-26 11:30N 56°20' E 017°10'510.6
2017-May-26 11:00N 56°23' E 017°18'26310.7
2017-May-25 10:33N 59°34' E 022°57'010.7
2017-May-25 10:30N 59°34' E 022°57'510.8
2017-May-25 10:00N 59°36' E 023°08'510.8
2017-May-25 09:30N 59°38' E 023°18'510.6
2017-May-25 09:00N 59°39' E 023°28'510.8
2017-May-25 08:30N 59°41' E 023°38'510.8
2017-May-25 08:00N 59°42' E 023°48'510.8
2017-May-25 07:30N 59°43' E 023°59'510.7
2017-May-25 07:00N 59°45' E 024°09'2211.2
2017-May-25 05:00N 59°50' E 024°52'910.5
2017-May-25 04:08N 59°52' E 025°10'110.2
2017-May-25 04:00N 59°52' E 025°13'610.5
2017-May-25 03:25N 59°53' E 025°25'410.5
2017-May-25 03:00N 59°54' E 025°33'510.7
2017-May-25 02:30N 59°55' E 025°43'510.4
2017-May-25 02:00N 59°58' E 025°52'510.7
2017-May-25 01:30N 60°01' E 026°00'510.6
2017-May-25 01:00N 60°05' E 026°08'510.7
2017-May-25 00:30N 60°09' E 026°16'510.4
2017-May-25 00:00N 60°12' E 026°23'5 9.3
2017-May-24 23:30N 60°17' E 026°25'611.8
2017-May-24 23:00N 60°22' E 026°18'3 7.0
2017-May-24 22:30N 60°25' E 026°15'0 0.0
2017-May-24 22:00N 60°25' E 026°15'0 0.0
2017-May-24 21:12N 60°25' E 026°15'0 0.0
2017-May-24 21:00N 60°25' E 026°15'0 0.0
2017-May-24 20:27N 60°25' E 026°15'0 0.0
2017-May-24 19:48N 60°25' E 026°15'0 0.0
2017-May-24 19:24N 60°25' E 026°15'0 0.0
2017-May-24 13:36N 60°25' E 026°15'0 0.0
2017-May-24 13:18N 60°25' E 026°15'0 0.0
2017-May-24 12:45N 60°25' E 026°15'0 0.0
2017-May-24 08:21N 60°25' E 026°15'0 0.0
2017-May-24 07:51N 60°25' E 026°15'0 0.0
2017-May-24 07:21N 60°25' E 026°15'0 0.0
2017-May-24 06:09N 60°25' E 026°15'0 0.0
2017-May-24 05:45N 60°25' E 026°15'0 0.0
2017-May-24 05:27N 60°25' E 026°15'0 0.0
2017-May-24 04:57N 60°25' E 026°15'0 0.0
2017-May-24 02:30N 60°25' E 026°15'0 0.0
2017-May-24 02:00N 60°25' E 026°15'0 0.0
2017-May-24 00:51N 60°25' E 026°15'0 0.0
2017-May-24 00:30N 60°25' E 026°15'0 0.0
2017-May-24 00:00N 60°25' E 026°15'0 0.0
2017-May-23 23:30N 60°25' E 026°15'0 0.0
2017-May-23 22:57N 60°25' E 026°15'0 0.0
2017-May-23 22:30N 60°25' E 026°15'0 0.0
2017-May-23 21:57N 60°25' E 026°15'0 0.0
2017-May-23 21:30N 60°25' E 026°15'0 0.0
2017-May-23 21:00N 60°25' E 026°15'0 0.0
2017-May-23 20:30N 60°25' E 026°15'0 0.0
2017-May-23 19:45N 60°25' E 026°15'0 0.0
2017-May-23 13:24N 60°25' E 026°15'0 0.0
2017-May-23 12:57N 60°25' E 026°15'0 0.0
2017-May-23 12:27N 60°25' E 026°15'0 0.0
2017-May-23 11:57N 60°25' E 026°15'0 0.0
2017-May-23 11:27N 60°25' E 026°15'0 0.0
2017-May-23 10:57N 60°25' E 026°15'0 0.0
2017-May-23 10:27N 60°25' E 026°15'0 0.0
2017-May-23 09:57N 60°25' E 026°15'0 0.0
2017-May-23 09:27N 60°25' E 026°15'0 0.0
2017-May-23 08:57N 60°25' E 026°15'0 0.0
2017-May-23 08:27N 60°25' E 026°15'0 0.0
2017-May-22 19:54N 60°25' E 026°15'0 0.0
2017-May-22 19:24N 60°25' E 026°15'0 0.0
2017-May-22 09:15N 60°25' E 026°15'0 0.0
2017-May-22 02:00N 60°25' E 026°15'0 0.0
2017-May-22 01:24N 60°25' E 026°15'0 0.0
2017-May-22 00:42N 60°25' E 026°15'0 0.0
2017-May-22 00:30N 60°25' E 026°15'0 0.0
2017-May-22 00:00N 60°25' E 026°15'0 0.0
2017-May-21 23:30N 60°25' E 026°15'0 0.0
2017-May-21 23:00N 60°25' E 026°15'  

Dump ship's entire track history